Time;durP1;ratioP1;P1;durP2;ratioP2;P2;SDS_P1;SDS_P2;PMS_P1;PMS_P2;Temp;Humidity;BMP_temperature;BMP_pressure;BME280_temperature;BME280_humidity;BME280_pressure;Samples;Min_cycle;Max_cycle;Signal;HPM_P1;HPM_P2
2022/04/24 00:00:06;;;;;;;28.33;26.33;;;;;;;8.46;100.00;100566.94;4933670;29;20478;-80
2022/04/24 00:02:33;;;;;;;29.80;27.70;;;;;;;8.18;100.00;100566.13;4933198;29;20051;-80
2022/04/24 00:05:00;;;;;;;30.48;28.20;;;;;;;7.96;100.00;100573.31;4933855;29;20111;-80
2022/04/24 00:07:29;;;;;;;28.13;26.02;;;;;;;7.76;100.00;100571.31;4933750;29;20128;-80
2022/04/24 00:09:56;;;;;;;28.75;26.75;;;;;;;7.94;100.00;100562.91;4933545;29;20544;-80
2022/04/24 00:12:23;;;;;;;29.00;26.70;;;;;;;8.02;100.00;100564.63;4936764;29;20055;-80
2022/04/24 00:14:50;;;;;;;29.73;27.60;;;;;;;8.20;100.00;100562.28;4937011;29;20052;-79
2022/04/24 00:17:20;;;;;;;29.85;27.75;;;;;;;8.28;100.00;100563.94;4937278;29;20058;-79
2022/04/24 00:19:48;;;;;;;28.60;26.48;;;;;;;8.16;100.00;100562.84;4937391;29;20421;-80
2022/04/24 00:22:15;;;;;;;27.83;25.83;;;;;;;8.09;100.00;100568.09;4937210;29;20055;-80
2022/04/24 00:24:44;;;;;;;29.75;27.13;;;;;;;8.07;100.00;100567.47;4937227;29;20056;-80
2022/04/24 00:27:11;;;;;;;28.63;26.33;;;;;;;8.15;100.00;100567.34;4937228;29;20052;-79
2022/04/24 00:29:38;;;;;;;28.98;26.88;;;;;;;8.20;100.00;100570.22;4936762;29;20051;-80
2022/04/24 00:32:08;;;;;;;28.55;26.48;;;;;;;8.26;100.00;100574.75;4936623;29;20087;-80
2022/04/24 00:34:35;;;;;;;30.77;28.13;;;;;;;8.09;100.00;100573.41;4936516;29;20055;-80
2022/04/24 00:37:02;;;;;;;28.42;26.33;;;;;;;8.07;100.00;100567.47;4936170;29;20506;-79
2022/04/24 00:39:29;;;;;;;28.00;25.65;;;;;;;8.11;100.00;100576.69;4936509;29;20051;-80
2022/04/24 00:41:57;;;;;;;28.60;26.60;;;;;;;8.10;100.00;100579.50;4936034;29;20186;-80
2022/04/24 00:44:24;;;;;;;30.77;28.40;;;;;;;8.01;100.00;100571.69;4936191;29;20485;-80
2022/04/24 00:46:56;;;;;;;27.95;25.98;;;;;;;8.07;100.00;100572.75;4936803;29;20047;-80
2022/04/24 00:49:23;;;;;;;28.25;26.10;;;;;;;7.77;100.00;100570.28;4936206;29;20095;-79
2022/04/24 00:51:50;;;;;;;27.60;25.60;;;;;;;7.89;100.00;100577.72;4937007;29;20115;-80
2022/04/24 00:54:17;;;;;;;26.63;24.65;;;;;;;8.03;100.00;100582.91;4936178;29;20064;-80
2022/04/24 00:56:45;;;;;;;27.30;24.98;;;;;;;7.93;100.00;100581.63;4936522;29;20115;-80
2022/04/24 00:59:15;;;;;;;27.77;25.65;;;;;;;7.98;100.00;100585.31;4936504;29;20070;-80
2022/04/24 01:01:42;;;;;;;27.48;25.58;;;;;;;8.09;100.00;100585.81;4936885;29;20051;-80
2022/04/24 01:04:12;;;;;;;29.10;27.10;;;;;;;7.96;100.00;100575.97;4936098;29;20122;-79
2022/04/24 01:06:41;;;;;;;25.52;23.60;;;;;;;7.82;100.00;100580.31;4935913;29;20502;-80
2022/04/24 01:09:12;;;;;;;27.55;25.70;;;;;;;7.82;100.00;100579.50;4936033;29;20577;-80
2022/04/24 01:11:40;;;;;;;30.08;27.73;;;;;;;7.29;100.00;100580.66;4932611;29;20051;-80
2022/04/24 01:14:07;;;;;;;26.60;24.83;;;;;;;7.40;100.00;100583.78;4936577;29;20402;-79
2022/04/24 01:16:36;;;;;;;30.50;28.08;;;;;;;7.62;100.00;100580.13;4936410;29;20047;-80
2022/04/24 01:19:05;;;;;;;30.40;28.30;;;;;;;7.47;100.00;100579.38;4935651;29;20048;-80
2022/04/24 01:21:33;;;;;;;31.85;29.55;;;;;;;7.71;100.00;100579.00;4936148;29;20043;-79
2022/04/24 01:24:00;;;;;;;29.05;26.90;;;;;;;7.56;100.00;100575.59;4935899;29;20079;-79
2022/04/24 01:26:28;;;;;;;29.98;27.60;;;;;;;7.44;100.00;100582.41;4931837;29;20418;-79
2022/04/24 01:28:55;;;;;;;28.52;26.63;;;;;;;7.51;100.00;100575.38;4935992;29;20209;-80
2022/04/24 01:31:22;;;;;;;28.73;26.48;;;;;;;7.80;100.00;100580.50;4935200;29;20418;-80
2022/04/24 01:33:49;;;;;;;27.58;25.67;;;;;;;7.58;100.00;100584.16;4936007;29;20055;-79
2022/04/24 01:36:15;;;;;;;28.65;26.45;;;;;;;7.57;100.00;100575.44;4936037;29;20047;-80
2022/04/24 01:38:44;;;;;;;27.70;25.50;;;;;;;7.64;100.00;100580.78;4936067;29;20430;-80
2022/04/24 01:41:11;;;;;;;28.80;26.45;;;;;;;7.70;100.00;100587.94;4935368;29;20494;-80
2022/04/24 01:43:38;;;;;;;25.75;23.85;;;;;;;7.51;100.00;100583.31;4935589;29;20051;-80
2022/04/24 01:46:05;;;;;;;26.95;24.77;;;;;;;7.77;100.00;100591.44;4934935;29;20047;-80
2022/04/24 01:48:33;;;;;;;28.85;26.65;;;;;;;7.84;100.00;100591.53;4935547;29;20111;-80
2022/04/24 01:51:00;;;;;;;27.83;25.83;;;;;;;7.83;100.00;100589.88;4935375;29;20138;-81
2022/04/24 01:53:28;;;;;;;27.67;25.25;;;;;;;7.63;100.00;100592.34;4935370;29;20489;-80
2022/04/24 01:55:57;;;;;;;26.33;24.42;;;;;;;7.56;100.00;100586.19;4935616;29;20082;-79
2022/04/24 01:58:24;;;;;;;27.90;25.58;;;;;;;7.57;100.00;100598.41;4931437;29;20055;-79
2022/04/24 02:00:51;;;;;;;28.15;25.75;;;;;;;7.29;100.00;100596.50;4935240;29;20477;-80
2022/04/24 02:03:18;;;;;;;26.67;24.67;;;;;;;7.24;100.00;100603.34;4934496;29;20047;-80
2022/04/24 02:05:45;;;;;;;29.58;27.17;;;;;;;7.26;100.00;100606.59;4935283;29;20111;-80
2022/04/24 02:08:12;;;;;;;32.50;30.42;;;;;;;7.14;100.00;100606.28;4934812;29;20130;-79
2022/04/24 02:10:40;;;;;;;27.88;25.88;;;;;;;7.31;100.00;100612.97;4935429;29;20047;-80
2022/04/24 02:13:08;;;;;;;28.08;26.08;;;;;;;7.45;100.00;100607.84;4935002;29;20517;-80
2022/04/24 02:15:35;;;;;;;28.40;26.15;;;;;;;7.37;100.00;100608.75;4934748;29;20044;-79
2022/04/24 02:18:03;;;;;;;28.88;26.80;;;;;;;7.47;100.00;100606.63;4934672;29;20055;-80
2022/04/24 02:20:30;;;;;;;27.83;25.77;;;;;;;7.27;100.00;100606.44;4934561;29;20521;-80
2022/04/24 02:22:57;;;;;;;27.98;25.88;;;;;;;7.18;100.00;100610.19;4934709;29;20052;-80
2022/04/24 02:25:25;;;;;;;29.55;27.20;;;;;;;7.17;100.00;100613.00;4934906;29;20060;-79
2022/04/24 02:27:53;;;;;;;36.25;33.05;;;;;;;7.04;100.00;100611.84;4934739;29;20130;-79
2022/04/24 02:30:21;;;;;;;33.97;30.95;;;;;;;7.13;100.00;100614.38;4933865;29;20048;-80
2022/04/24 02:32:48;;;;;;;32.35;29.45;;;;;;;6.97;100.00;100610.97;4934639;29;20062;-80
2022/04/24 02:35:15;;;;;;;31.15;28.58;;;;;;;6.97;100.00;100616.25;4934347;29;20426;-80
2022/04/24 02:37:42;;;;;;;31.92;29.35;;;;;;;6.95;100.00;100615.59;4935077;29;20047;-80
2022/04/24 02:40:10;;;;;;;31.45;29.00;;;;;;;7.18;100.00;100601.44;4934802;29;20520;-80
2022/04/24 02:42:37;;;;;;;31.02;28.73;;;;;;;7.11;100.00;100615.41;4934513;29;20148;-80
2022/04/24 02:45:05;;;;;;;30.92;28.55;;;;;;;6.90;100.00;100618.00;4934526;29;20486;-80
2022/04/24 02:47:33;;;;;;;27.75;25.83;;;;;;;6.85;100.00;100615.88;4934584;29;20052;-80
2022/04/24 02:50:00;;;;;;;26.38;24.42;;;;;;;6.78;100.00;100624.75;4934454;29;20051;-81
2022/04/24 02:52:27;;;;;;;28.17;24.88;;;;;;;6.77;100.00;100621.25;4934856;29;20056;-80
2022/04/24 02:54:54;;;;;;;26.70;24.80;;;;;;;6.97;100.00;100637.38;4934369;29;20055;-80
2022/04/24 02:57:21;;;;;;;28.38;26.38;;;;;;;6.87;100.00;100631.56;4934402;29;20051;-79
2022/04/24 02:59:49;;;;;;;25.98;23.98;;;;;;;6.85;100.00;100630.91;4934758;29;20520;-79
2022/04/24 03:02:16;;;;;;;27.38;25.08;;;;;;;6.92;100.00;100634.44;4934783;29;20071;-80
2022/04/24 03:04:45;;;;;;;27.80;25.60;;;;;;;6.84;100.00;100637.22;4933975;29;20127;-80
2022/04/24 03:07:13;;;;;;;26.60;24.52;;;;;;;7.00;100.00;100644.09;4934326;29;20051;-80
2022/04/24 03:09:40;;;;;;;26.77;24.77;;;;;;;7.17;100.00;100642.06;4934047;29;20048;-80
2022/04/24 03:12:07;;;;;;;29.98;27.48;;;;;;;6.91;100.00;100643.38;4934578;29;20087;-79
2022/04/24 03:14:34;;;;;;;27.98;26.02;;;;;;;6.87;100.00;100636.84;4934059;29;20578;-80
2022/04/24 03:17:01;;;;;;;27.33;25.17;;;;;;;7.08;100.00;100646.63;4934259;29;20055;-80
2022/04/24 03:19:28;;;;;;;26.27;23.83;;;;;;;6.82;100.00;100650.56;4934480;29;20048;-80
2022/04/24 03:21:56;;;;;;;25.27;23.52;;;;;;;6.76;100.00;100651.31;4933921;29;20044;-79
2022/04/24 03:24:22;;;;;;;27.48;25.20;;;;;;;6.82;100.00;100653.22;4934044;29;20048;-80
2022/04/24 03:26:50;;;;;;;25.90;23.65;;;;;;;6.84;100.00;100658.34;4934758;29;20509;-80
2022/04/24 03:29:17;;;;;;;25.35;23.55;;;;;;;6.70;100.00;100662.59;4934096;29;20052;-80
2022/04/24 03:31:44;;;;;;;25.02;23.30;;;;;;;6.62;100.00;100666.13;4933544;29;20048;-80
2022/04/24 03:34:11;;;;;;;23.42;21.73;;;;;;;6.59;100.00;100657.75;4933855;29;20070;-79
2022/04/24 03:36:38;;;;;;;24.67;22.67;;;;;;;6.63;100.00;100672.25;4933837;29;20596;-80
2022/04/24 03:39:06;;;;;;;25.20;23.38;;;;;;;6.81;100.00;100678.00;4934333;29;20075;-80
2022/04/24 03:41:33;;;;;;;24.02;22.10;;;;;;;6.63;100.00;100683.63;4934360;29;20111;-80
2022/04/24 03:44:00;;;;;;;24.88;22.85;;;;;;;6.69;100.00;100682.09;4934112;29;20489;-81
2022/04/24 03:46:27;;;;;;;26.60;24.38;;;;;;;6.80;100.00;100684.25;4934998;29;20052;-80
2022/04/24 03:48:53;;;;;;;25.02;23.30;;;;;;;6.88;100.00;100686.81;4936933;29;20052;-80
2022/04/24 03:51:20;;;;;;;25.88;23.98;;;;;;;6.91;100.00;100692.72;4937677;29;20060;-79
2022/04/24 03:53:47;;;;;;;22.88;21.13;;;;;;;6.87;100.00;100684.38;4937342;29;20051;-80
2022/04/24 03:56:15;;;;;;;23.55;21.73;;;;;;;7.15;100.00;100687.16;4937458;29;20493;-80
2022/04/24 03:58:42;;;;;;;23.10;21.30;;;;;;;7.08;100.00;100687.09;4933225;29;20056;-80
2022/04/24 04:01:09;;;;;;;23.27;21.67;;;;;;;7.14;100.00;100693.47;4936237;29;20163;-80
2022/04/24 04:03:36;;;;;;;23.08;21.38;;;;;;;7.32;100.00;100695.69;4937360;29;20051;-79
2022/04/24 04:06:02;;;;;;;22.90;21.30;;;;;;;7.45;100.00;100695.06;4930757;29;20110;-79
2022/04/24 04:08:29;;;;;;;24.90;22.90;;;;;;;7.70;100.00;100695.50;4937181;29;20502;-77
2022/04/24 04:10:56;;;;;;;23.88;22.17;;;;;;;7.79;100.00;100694.38;4937435;29;20554;-77
2022/04/24 04:13:24;;;;;;;23.08;21.08;;;;;;;7.92;100.00;100689.22;4937161;29;20477;-77
2022/04/24 04:15:51;;;;;;;23.98;21.95;;;;;;;7.92;100.00;100689.22;4937327;29;20052;-77
2022/04/24 04:18:18;;;;;;;23.98;22.17;;;;;;;8.12;100.00;100688.59;4937382;29;20417;-80
2022/04/24 04:20:45;;;;;;;23.70;22.00;;;;;;;8.15;100.00;100691.69;4936952;29;20044;-79
2022/04/24 04:23:12;;;;;;;24.08;22.35;;;;;;;8.36;100.00;100697.97;4937002;29;20052;-79
2022/04/24 04:25:39;;;;;;;24.30;22.40;;;;;;;8.70;100.00;100697.22;4936598;29;20493;-79
2022/04/24 04:28:05;;;;;;;24.45;22.50;;;;;;;9.02;100.00;100700.25;4936760;29;20052;-79
2022/04/24 04:30:34;;;;;;;25.30;23.40;;;;;;;9.10;100.00;100700.91;4936625;29;20509;-79
2022/04/24 04:33:00;;;;;;;24.27;22.52;;;;;;;9.31;100.00;100707.13;4935906;29;20055;-79
2022/04/24 04:35:27;;;;;;;24.08;22.30;;;;;;;9.41;100.00;100718.19;4936182;29;20058;-79
2022/04/24 04:37:54;;;;;;;24.45;22.65;;;;;;;9.49;100.00;100722.47;4936500;29;20508;-79
2022/04/24 04:40:21;;;;;;;24.73;22.58;;;;;;;9.76;100.00;100715.41;4936797;29;20059;-79
2022/04/24 04:42:49;;;;;;;24.55;22.63;;;;;;;10.04;100.00;100715.25;4937030;29;20082;-79
2022/04/24 04:45:16;;;;;;;24.52;22.63;;;;;;;10.09;100.00;100718.94;4936682;29;20047;-79
2022/04/24 04:47:44;;;;;;;23.42;21.73;;;;;;;10.29;100.00;100715.53;4936629;29;20051;-79
2022/04/24 04:50:11;;;;;;;23.38;21.73;;;;;;;10.47;100.00;100709.63;4936314;29;20139;-80
2022/04/24 04:52:39;;;;;;;24.45;22.83;;;;;;;10.49;100.00;100707.56;4936559;29;20059;-79
2022/04/24 04:55:07;;;;;;;25.17;23.48;;;;;;;10.64;100.00;100716.13;4935659;29;20056;-80
2022/04/24 04:57:34;;;;;;;25.63;23.52;;;;;;;10.72;100.00;100709.78;4935787;29;20108;-80
2022/04/24 05:00:01;;;;;;;24.25;22.42;;;;;;;10.92;100.00;100715.88;4932838;29;20666;-80
2022/04/24 05:02:28;;;;;;;27.55;25.30;;;;;;;11.31;100.00;100718.63;4934222;29;20055;-80
2022/04/24 05:04:57;;;;;;;23.90;22.10;;;;;;;11.32;100.00;100726.41;4931021;29;20043;-80
2022/04/24 05:07:23;;;;;;;40.60;35.85;;;;;;;11.59;100.00;100728.91;4933192;29;20411;-80
2022/04/24 05:09:50;;;;;;;41.70;37.17;;;;;;;11.76;100.00;100723.94;4932823;29;20059;-79
2022/04/24 05:12:17;;;;;;;44.88;40.22;;;;;;;11.85;100.00;100717.34;4930079;29;20079;-80
2022/04/24 05:14:44;;;;;;;32.35;29.80;;;;;;;11.99;100.00;100724.25;4930729;29;20103;-80
2022/04/24 05:17:11;;;;;;;32.10;28.80;;;;;;;11.81;100.00;100721.47;4934238;29;20048;-80
2022/04/24 05:19:37;;;;;;;32.60;30.20;;;;;;;12.01;100.00;100726.66;4928607;29;20047;-80
2022/04/24 05:22:06;;;;;;;26.00;24.20;;;;;;;12.34;100.00;100718.44;4930055;29;20126;-81
2022/04/24 05:24:33;;;;;;;24.40;23.00;;;;;;;12.25;100.00;100725.06;4928496;29;20052;-80
2022/04/24 05:27:01;;;;;;;22.83;20.92;;;;;;;12.50;100.00;100717.91;4929219;29;20047;-81
2022/04/24 05:29:28;;;;;;;28.85;27.25;;;;;;;12.59;100.00;100721.13;4934578;29;20084;-80
2022/04/24 05:31:55;;;;;;;24.20;22.80;;;;;;;12.65;100.00;100709.59;4933314;29;20040;-80
2022/04/24 05:34:21;;;;;;;24.45;22.95;;;;;;;12.83;100.00;100711.47;4933466;29;20047;-80
2022/04/24 05:36:48;;;;;;;24.90;23.00;;;;;;;13.05;100.00;100712.66;4935346;29;20441;-80
2022/04/24 05:39:16;;;;;;;26.30;24.70;;;;;;;13.14;100.00;100702.50;4935561;29;20051;-84
2022/04/24 05:41:43;;;;;;;25.70;24.10;;;;;;;13.27;100.00;100701.56;4934750;29;20107;-81
2022/04/24 05:44:10;;;;;;;30.38;28.27;;;;;;;13.50;100.00;100704.34;4935334;29;20052;-80
2022/04/24 05:46:37;;;;;;;29.95;27.80;;;;;;;13.69;100.00;100699.78;4934984;29;20052;-80
2022/04/24 05:49:04;;;;;;;28.98;26.95;;;;;;;13.89;100.00;100699.50;4935491;29;20116;-80
2022/04/24 05:51:31;;;;;;;28.45;26.33;;;;;;;14.16;100.00;100699.06;4934842;29;20485;-80
2022/04/24 05:53:58;;;;;;;27.38;25.58;;;;;;;14.20;100.00;100695.72;4935032;29;20106;-80
2022/04/24 05:56:27;;;;;;;28.85;26.52;;;;;;;14.17;100.00;100700.72;4934280;29;20115;-81
2022/04/24 05:58:54;;;;;;;29.27;26.98;;;;;;;14.45;100.00;100705.38;4934758;29;20052;-80
2022/04/24 06:01:20;;;;;;;31.38;28.70;;;;;;;14.59;100.00;100700.66;4935108;29;20047;-80
2022/04/24 06:03:47;;;;;;;29.55;27.35;;;;;;;14.94;100.00;100695.28;4935482;29;20077;-80
2022/04/24 06:06:14;;;;;;;28.90;26.80;;;;;;;15.12;100.00;100697.78;4933326;29;20490;-80
2022/04/24 06:08:41;;;;;;;26.88;25.08;;;;;;;15.37;100.00;100701.22;4934953;29;20048;-80
2022/04/24 06:11:09;;;;;;;28.15;26.15;;;;;;;15.43;100.00;100702.94;4934720;29;20044;-80
2022/04/24 06:13:39;;;;;;;27.17;25.40;;;;;;;15.37;100.00;100701.22;4933561;29;20490;-80
2022/04/24 06:16:06;;;;;;;29.25;27.35;;;;;;;15.43;100.00;100695.75;4934305;29;20055;-80
2022/04/24 06:18:33;;;;;;;29.20;27.10;;;;;;;15.89;100.00;100699.28;4934469;29;20430;-81
2022/04/24 06:21:00;;;;;;;28.38;26.38;;;;;;;16.02;100.00;100700.84;4934337;29;20107;-80
2022/04/24 06:23:28;;;;;;;28.55;26.52;;;;;;;16.35;100.00;100697.38;4934870;29;20115;-80
2022/04/24 06:25:57;;;;;;;29.88;27.60;;;;;;;16.50;100.00;100699.47;4934335;29;20043;-80
2022/04/24 06:28:23;;;;;;;27.65;25.95;;;;;;;16.41;100.00;100698.25;4934319;29;20067;-80
2022/04/24 06:30:52;;;;;;;28.20;26.30;;;;;;;16.59;100.00;100681.91;4934580;29;20060;-80
2022/04/24 06:33:19;;;;;;;28.55;26.48;;;;;;;16.64;100.00;100690.03;4935107;29;20102;-80
2022/04/24 06:35:48;;;;;;;30.30;28.23;;;;;;;16.19;100.00;100688.28;4933976;29;20059;-80
2022/04/24 06:38:16;;;;;;;31.02;28.95;;;;;;;15.66;100.00;100691.34;4934736;29;20054;-81
2022/04/24 06:40:42;;;;;;;28.90;27.10;;;;;;;16.67;100.00;100686.00;4932456;29;20402;-81
2022/04/24 06:43:09;;;;;;;30.60;28.50;;;;;;;16.80;100.00;100677.66;4933599;29;20114;-80
2022/04/24 06:45:38;;;;;;;29.60;27.70;;;;;;;16.69;100.00;100683.91;4933603;29;20047;-81
2022/04/24 06:48:09;;;;;;;28.83;27.13;;;;;;;16.93;100.00;100684.53;4934333;29;20083;-81
2022/04/24 06:50:38;;;;;;;27.70;26.10;;;;;;;17.52;100.00;100684.69;4933625;29;20429;-80
2022/04/24 06:53:06;;;;;;;28.65;26.73;;;;;;;17.63;100.00;100683.72;4934264;29;20127;-80
2022/04/24 06:55:35;;;;;;;28.50;26.73;;;;;;;17.18;100.00;100689.41;4932212;29;20063;-81
2022/04/24 06:58:04;;;;;;;28.45;26.92;;;;;;;17.55;100.00;100684.19;4933933;29;20123;-80
2022/04/24 07:00:34;;;;;;;30.08;27.63;;;;;;;17.45;100.00;100686.75;4934210;29;20048;-80
2022/04/24 07:03:01;;;;;;;29.63;27.83;;;;;;;17.21;100.00;100678.16;4933745;29;20406;-80
2022/04/24 07:05:29;;;;;;;29.55;27.30;;;;;;;17.05;100.00;100690.59;4932372;29;20058;-81
2022/04/24 07:07:56;;;;;;;28.92;27.23;;;;;;;17.32;100.00;100687.97;4934217;29;20052;-81
2022/04/24 07:10:23;;;;;;;29.23;27.42;;;;;;;17.13;100.00;100687.47;4934174;29;20055;-81
2022/04/24 07:12:51;;;;;;;30.20;28.48;;;;;;;17.36;100.00;100689.06;4933225;29;20055;-81
2022/04/24 07:15:20;;;;;;;28.10;26.20;;;;;;;16.36;100.00;100688.25;4933438;29;20051;-80
2022/04/24 07:17:48;;;;;;;29.30;27.58;;;;;;;17.76;100.00;100690.56;4934721;29;20047;-81
2022/04/24 07:20:16;;;;;;;27.55;25.95;;;;;;;17.57;100.00;100684.72;4933781;29;20410;-80
2022/04/24 07:22:47;;;;;;;27.63;26.02;;;;;;;18.47;100.00;100687.66;4937775;29;20497;-79
2022/04/24 07:25:15;;;;;;;28.02;26.42;;;;;;;18.35;100.00;100686.25;4936161;29;20532;-81
2022/04/24 07:27:42;;;;;;;27.65;26.15;;;;;;;18.88;100.00;100695.19;4937654;29;20047;-80
2022/04/24 07:30:13;;;;;;;28.70;26.80;;;;;;;18.73;100.00;100693.25;4935195;29;20055;-80
2022/04/24 07:32:44;;;;;;;28.67;26.98;;;;;;;17.91;100.00;100689.09;4935640;29;20043;-80
2022/04/24 07:35:13;;;;;;;27.65;26.15;;;;;;;16.63;100.00;100692.94;4916963;29;20052;-80
2022/04/24 07:37:40;;;;;;;29.02;27.33;;;;;;;16.81;100.00;100686.53;4916368;29;20605;-80
2022/04/24 07:40:19;;;;;;;28.70;27.00;;;;;;;17.08;100.00;100697.34;4916244;29;20433;-80
2022/04/24 07:42:48;;;;;;;28.55;26.88;;;;;;;17.76;100.00;100697.81;4913866;29;20135;-80
2022/04/24 07:45:23;;;;;;;28.60;26.95;;;;;;;18.02;100.00;100691.63;4917307;29;20063;-81
2022/04/24 07:47:51;;;;;;;30.35;28.55;;;;;;;18.78;100.00;100693.25;4919313;29;20052;-81
2022/04/24 07:50:20;;;;;;;31.30;28.73;;;;;;;19.65;100.00;100688.22;4912982;29;20044;-82
2022/04/24 07:52:49;;;;;;;27.13;25.63;;;;;;;19.27;100.00;100690.25;4912812;29;20108;-82
2022/04/24 07:55:22;;;;;;;27.85;26.35;;;;;;;19.04;100.00;100688.03;4916613;29;20044;-85
2022/04/24 07:57:49;;;;;;;27.73;26.05;;;;;;;20.27;100.00;100694.44;4916979;29;20533;-82
2022/04/24 08:00:18;;;;;;;28.50;27.00;;;;;;;20.55;100.00;100685.03;4915206;29;20104;-82
2022/04/24 08:02:47;;;;;;;29.45;27.70;;;;;;;20.39;100.00;100673.38;4914230;29;20050;-79
2022/04/24 08:05:18;;;;;;;29.35;27.33;;;;;;;19.64;100.00;100682.03;4909654;29;20048;-80
2022/04/24 08:07:45;;;;;;;28.63;26.67;;;;;;;20.71;100.00;100675.78;4916542;29;20048;-80
2022/04/24 08:10:12;;;;;;;32.83;30.88;;;;;;;19.94;100.00;100674.22;4917973;29;20055;-79
2022/04/24 08:12:40;;;;;;;32.60;30.70;;;;;;;19.10;100.00;100665.44;4914566;29;20059;-80
2022/04/24 08:15:07;;;;;;;33.63;31.63;;;;;;;19.06;100.00;100669.72;4914064;29;20048;-80
2022/04/24 08:17:34;;;;;;;33.70;31.88;;;;;;;19.16;100.00;100667.06;4914796;29;20104;-80
2022/04/24 08:20:01;;;;;;;28.17;26.48;;;;;;;19.20;100.00;100668.16;4915364;29;20182;-82
2022/04/24 08:22:37;;;;;;;28.30;26.60;;;;;;;20.83;100.00;100661.19;4910914;29;20048;-80
2022/04/24 08:25:04;;;;;;;28.48;26.88;;;;;;;20.71;84.99;100659.59;4913577;29;20066;-81
2022/04/24 08:27:31;;;;;;;28.58;26.88;;;;;;;20.73;84.32;100654.75;4914103;29;20056;-79
2022/04/24 08:30:00;;;;;;;27.80;26.30;;;;;;;18.18;100.00;100654.13;4916368;29;20059;-80
2022/04/24 08:32:27;;;;;;;28.65;26.95;;;;;;;17.23;100.00;100646.53;4914519;29;20044;-80
2022/04/24 08:34:56;;;;;;;30.10;28.50;;;;;;;19.34;100.00;100644.25;4916628;29;20108;-79
2022/04/24 08:37:40;;;;;;;28.90;27.30;;;;;;;19.53;98.39;100645.34;4916315;29;20047;-80
2022/04/24 08:40:09;;;;;;;28.80;27.10;;;;;;;18.51;100.00;100639.56;4904431;29;20063;-81
2022/04/24 08:42:36;;;;;;;29.02;27.40;;;;;;;19.63;100.00;100639.97;4917922;29;20481;-80
2022/04/24 08:45:07;;;;;;;27.95;26.35;;;;;;;19.32;95.80;100641.78;4917431;29;20112;-80
2022/04/24 08:47:34;;;;;;;28.88;27.08;;;;;;;18.66;100.00;100636.13;4916345;29;20056;-80
2022/04/24 08:50:01;;;;;;;28.83;27.23;;;;;;;20.71;100.00;100621.81;4914750;29;20483;-80
2022/04/24 08:52:30;;;;;;;28.45;26.75;;;;;;;20.87;93.95;100629.84;4914691;29;20498;-79
2022/04/24 08:54:58;;;;;;;27.88;26.17;;;;;;;20.86;91.58;100620.16;4916403;29;20119;-78
2022/04/24 08:57:27;;;;;;;28.60;27.00;;;;;;;20.24;95.51;100624.88;4917409;29;20074;-79
2022/04/24 08:59:55;;;;;;;28.85;27.10;;;;;;;19.86;97.85;100621.69;4916891;29;20144;-80
2022/04/24 09:02:24;;;;;;;29.13;26.98;;;;;;;21.52;97.11;100611.69;4916842;29;20135;-78
2022/04/24 09:04:52;;;;;;;29.15;27.35;;;;;;;22.47;85.53;100606.78;4916956;29;20044;-80
2022/04/24 09:07:20;;;;;;;29.48;27.48;;;;;;;22.82;79.82;100606.38;4917342;29;20134;-80
2022/04/24 09:09:48;;;;;;;29.33;27.63;;;;;;;22.67;81.75;100606.56;4916649;29;20426;-79
2022/04/24 09:12:17;;;;;;;29.30;27.30;;;;;;;21.77;81.38;100607.97;4916607;29;20052;-79
2022/04/24 09:14:48;;;;;;;28.85;27.05;;;;;;;21.90;96.04;100604.59;4915369;29;20116;-79
2022/04/24 09:17:18;;;;;;;28.40;26.60;;;;;;;20.17;88.38;100606.28;4916266;29;20582;-79
2022/04/24 09:19:46;;;;;;;29.90;28.10;;;;;;;19.04;95.32;100597.31;4917381;29;20060;-78
2022/04/24 09:22:14;;;;;;;30.40;28.60;;;;;;;20.14;100.00;100604.13;4916371;29;20091;-80
2022/04/24 09:24:43;;;;;;;28.80;27.20;;;;;;;20.10;91.55;100603.06;4916362;29;20044;-79
2022/04/24 09:27:11;;;;;;;30.00;28.30;;;;;;;20.69;100.00;100588.91;4917048;29;20052;-80
2022/04/24 09:29:39;;;;;;;30.00;28.35;;;;;;;22.23;98.55;100587.84;4916861;29;20109;-80
2022/04/24 09:32:18;;;;;;;30.65;28.58;;;;;;;21.06;89.47;100590.38;4917187;29;20113;-79
2022/04/24 09:34:46;;;;;;;30.40;28.55;;;;;;;20.11;98.19;100577.72;4914243;29;20047;-79
2022/04/24 09:37:13;;;;;;;29.08;27.48;;;;;;;19.92;100.00;100582.06;4916623;29;20135;-79
2022/04/24 09:39:40;;;;;;;29.83;28.13;;;;;;;22.77;96.58;100576.66;4916487;29;20044;-79
2022/04/24 09:42:09;;;;;;;30.88;29.10;;;;;;;22.45;99.29;100576.50;4916712;29;20052;-80
2022/04/24 09:44:42;;;;;;;30.02;27.83;;;;;;;22.32;84.73;100570.69;4915678;29;20056;-80
2022/04/24 09:47:10;;;;;;;30.05;28.30;;;;;;;20.66;83.47;100564.38;4915258;29;20051;-80
2022/04/24 09:49:39;;;;;;;29.02;27.30;;;;;;;20.84;100.00;100561.03;4916204;29;21180;-84
2022/04/24 09:52:12;;;;;;;29.00;27.27;;;;;;;23.29;87.50;100552.38;4914338;29;20056;-80
2022/04/24 09:54:41;;;;;;;28.63;26.92;;;;;;;24.02;74.08;100552.78;4915931;29;20510;-77
2022/04/24 09:57:09;;;;;;;29.17;27.48;;;;;;;24.50;70.60;100545.09;4915580;29;20052;-79
2022/04/24 09:59:37;;;;;;;29.83;28.02;;;;;;;24.98;69.29;100551.94;4902651;29;20072;-82
2022/04/24 10:02:05;;;;;;;28.60;27.10;;;;;;;24.68;70.36;100540.63;4916340;29;20124;-79
2022/04/24 10:04:36;;;;;;;29.42;27.52;;;;;;;24.35;75.55;100531.81;4916441;29;20139;-81
2022/04/24 10:07:09;;;;;;;29.15;27.35;;;;;;;26.18;74.36;100526.66;4914038;29;20547;-79
2022/04/24 10:09:39;;;;;;;30.13;28.17;;;;;;;26.18;74.00;100526.66;4916392;29;20072;-81
2022/04/24 10:12:08;;;;;;;29.50;27.80;;;;;;;26.83;69.11;100522.31;4915694;29;20431;-81
2022/04/24 10:14:41;;;;;;;30.77;28.75;;;;;;;25.48;69.69;100528.22;4915711;29;20502;-82
2022/04/24 10:17:45;;;;;;;29.23;27.58;;;;;;;22.40;76.66;100526.78;4915726;29;20108;-82
2022/04/24 10:20:36;;;;;;;30.40;28.48;;;;;;;21.91;77.02;100521.63;4902687;29;20055;-82
2022/04/24 10:23:03;;;;;;;29.77;27.80;;;;;;;21.72;79.59;100521.53;4909426;29;20052;-79
2022/04/24 10:25:37;;;;;;;29.02;27.35;;;;;;;22.26;73.85;100506.13;4914264;29;20052;-78
2022/04/24 10:28:12;;;;;;;29.80;27.88;;;;;;;24.15;68.01;100508.63;4914358;29;20055;-80
2022/04/24 10:30:39;;;;;;;31.33;29.52;;;;;;;23.78;72.11;100518.50;4915675;29;20131;-78
2022/04/24 10:33:15;;;;;;;31.27;29.58;;;;;;;24.92;70.35;100511.31;4915824;29;20048;-79
2022/04/24 10:35:52;;;;;;;31.63;29.73;;;;;;;25.32;63.27;100516.09;4906665;29;20493;-79
2022/04/24 10:38:21;;;;;;;30.45;28.65;;;;;;;23.49;65.25;100516.81;4914660;29;20506;-82
2022/04/24 10:41:06;;;;;;;30.73;28.92;;;;;;;22.33;70.92;100507.41;4915192;29;20081;-80
2022/04/24 10:43:38;;;;;;;29.40;27.67;;;;;;;24.88;66.59;100514.97;4914118;29;20041;-79
2022/04/24 10:46:17;;;;;;;30.38;28.52;;;;;;;24.79;66.04;100505.94;4909309;29;20056;-79
2022/04/24 10:48:43;;;;;;;31.20;29.40;;;;;;;26.36;55.39;100496.78;4914849;29;20059;-80
2022/04/24 10:51:10;;;;;;;31.20;29.40;;;;;;;26.85;58.70;100494.75;4915222;29;20482;-81
2022/04/24 10:53:52;;;;;;;32.08;29.98;;;;;;;27.53;57.70;100497.72;4915166;29;20154;-80
2022/04/24 10:56:21;;;;;;;32.80;31.00;;;;;;;27.01;58.15;100498.59;4914564;29;20056;-84
2022/04/24 10:58:49;;;;;;;32.20;30.48;;;;;;;27.62;58.83;100490.31;4914639;29;20379;-80
2022/04/24 11:01:17;;;;;;;32.08;30.27;;;;;;;22.95;67.39;100506.59;4914707;29;20076;-80
2022/04/24 11:03:46;;;;;;;32.15;30.27;;;;;;;23.24;66.04;100501.81;4909870;29;20052;-80
2022/04/24 11:06:21;;;;;;;31.70;29.70;;;;;;;23.65;65.51;100508.44;4915024;29;20051;-81
2022/04/24 11:08:49;;;;;;;31.27;29.58;;;;;;;21.77;71.47;100493.66;4914820;29;20048;-82
2022/04/24 11:11:17;;;;;;;30.77;29.08;;;;;;;22.89;70.60;100505.03;4911894;29;20467;-81